• Join FlightAware (Why Join?)
  • Login
  • US Flag 
07:46AM EST


 

Airport Tracker/Info


-or-


 

Live Flight TrackerFlight Track Log ✈ SWA2236 ✈ 16-Jul-2013 ✈ KBWI - KALB

Flight Track Log - Related Links

Times and Time Zones

All times are in EDT time to prevent confusion due to time zone crossing. See the SWA2236 flight status page for this flight to view local times or setup timezone preferences in your user account.

Time Position Orientation Groundspeed Altitude Reporting Facility
EDT Latitude Longitude Course Direction KTS MPH feet Rate Location/Type
10:37PM 39.1833 -76.7000 197° South 158 182 1,200  Level Potomac TRACON
10:39PM 39.0956 -76.7336 197° South 153 176 6,000 1,800 Climbing Washington Center
10:40PM 39.0881 -76.6478 96° East 148 170 6,900 600 Climbing Washington Center
10:41PM 39.1014 -76.5519 80° East 185 213 7,300 1,740 Climbing Washington Center
10:42PM 39.1167 -76.4531 79° East 243 280 10,500 2,880 Climbing Washington Center
10:43PM 39.1342 -76.3408 79° East 283 326 13,200 2,940 Climbing Washington Center
10:44PM 39.1514 -76.2206 80° East 321 369 16,300 2,880 Climbing Washington Center
10:45PM 39.1686 -76.0789 81° East 349 402 18,900 2,280 Climbing Washington Center
10:46PM 39.1858 -75.9397 81° East 370 426 21,000 1,980 Climbing Washington Center
10:47PM 39.2383 -75.8139 62° Northeast 387 445 23,000 1,560 Climbing Washington Center
10:48PM 39.3258 -75.7097 43° Northeast 396 456 24,200 1,980 Climbing Washington Center
10:49PM 39.4072 -75.6022 46° Northeast 402 463 26,900 2,340 Climbing Washington Center
10:50PM 39.4906 -75.4975 44° Northeast 407 468 29,000 1,020 Climbing Washington Center
10:51PM 39.5739 -75.3897 45° Northeast 407 468 29,000  Level Washington Center
10:52PM 39.6569 -75.2789 46° Northeast 412 474 29,000  Level Washington Center
10:53PM 39.7397 -75.1625 47° Northeast 417 480 29,000  Level Washington Center
10:54PM 39.8186 -75.0431 49° Northeast 436 502 29,000  Level Washington Center
10:55PM 39.8931 -74.9425 46° Northeast 436 502 29,000  Level Washington Center
10:56PM 40.0011 -74.7922 47° Northeast 419 482 29,000  Level New York Center
10:57PM 40.0836 -74.6967 42° Northeast 425 489 29,000  Level New York Center
10:58PM 40.1833 -74.5828 41° Northeast 425 489 29,000  Level New York Center
10:59PM 40.2744 -74.4733 42° Northeast 431 496 29,000  Level New York Center
11:00PM 40.3672 -74.3694 40° Northeast 431 496 29,000 -240 Level New York Center
11:02PM 40.5153 -74.1897 43° Northeast 427 491 28,400 -600 Descending Boston Center
11:03PM 40.6025 -74.0856 42° Northeast 427 491 27,400 -1,200 Descending Boston Center
11:04PM 40.6997 -73.9731 41° Northeast 417 480 26,100 -1,740 Descending Boston Center
11:05PM 40.7825 -73.8764 41° Northeast 407 468 24,000 -1,080 Descending Boston Center
11:06PM 40.8608 -73.7767 44° Northeast 397 457 24,000 -420 Level Boston Center
11:07PM 40.9242 -73.7008 42° Northeast 391 450 23,200 -540 Descending Boston Center
11:08PM 41.0253 -73.5956 38° Northeast 386 444 23,000 -120 Descending Boston Center
11:09PM 41.1294 -73.6003 358° North 355 409 23,000 -480 Level Boston Center
11:10PM 41.2333 -73.6131 355° North 356 410 22,100 -900 Descending Boston Center
11:11PM 41.3250 -73.6231 355° North 361 415 21,300 -900 Descending Boston Center
11:12PM 41.4250 -73.6389 353° North 366 421 20,300 -1,080 Descending Boston Center
11:13PM 41.5372 -73.6547 354° North 366 421 19,200 -1,020 Descending Boston Center
11:14PM 41.6289 -73.6647 355° North 366 421 18,300 -900 Descending Boston Center
11:15PM 41.7350 -73.6808 354° North 360 414 17,400 -1,320 Descending Boston Center
11:16PM 41.8328 -73.6911 356° North 354 407 15,700 -1,800 Descending Boston Center
11:17PM 41.9244 -73.7069 353° North 342 394 13,800 -2,040 Descending Boston Center
11:18PM 42.0181 -73.7172 355° North 337 388 11,700 -1,440 Descending Boston Center
11:19PM 42.0972 -73.7244 356° North 317 365 11,000 -660 Descending Boston Center
11:20PM 42.1867 -73.7372 354° North 301 346 10,400 -1,200 Descending Boston Center
11:21PM 42.2575 -73.7472 354° North 291 335 8,700 -1,860 Descending Boston Center
11:22PM 42.3386 -73.7603 353° North 272 313 6,700 -1,860 Descending Boston Center
11:23PM 42.4053 -73.7672 356° North 272 313 5,000 -1,800 Descending Boston Center
11:24PM 42.4864 -73.7775 355° North 266 306 3,200 -1,440 Descending Boston Center
11:25PM 42.5611 -73.7903 353° North 256 295 2,100 -600 Descending Boston Center
11:26PM 42.6300 -73.7975 356° North 202 232 2,000 -120 Descending Boston Center
11:27PM 42.6861 -73.8100 351° North 225 259 1,900 10,380 Descending Boston Center
11:28PM 42.7483 -73.8169 355° North 225 259 23,000 10,500 Climbing Boston Center
11:29PM 42.8108 -73.8269 353° North 225 259 23,000  Level Boston Center
11:30PM 42.8733 -73.8339 355° North 225 259 23,000  Level Boston Center
11:31PM 42.8858 -73.8369 350° North 225 259 23,000  Level Boston Center
11:32PM 42.8858 -73.8369 316° Northwest 225 259 23,000  Level Boston Center